Time;durP1;ratioP1;P1;durP2;ratioP2;P2;SDS_P1;SDS_P2;PMS_P1;PMS_P2;Temp;Humidity;BMP_temperature;BMP_pressure;BME280_temperature;BME280_humidity;BME280_pressure;Samples;Min_cycle;Max_cycle;Signal;HPM_P1;HPM_P2
2022/12/01 00:01:10;;;;;;;90.95;31.58;;;7.30;99.90;;;;;;6065137;23;92993;-77
2022/12/01 00:03:37;;;;;;;87.03;34.03;;;7.30;99.90;;;;;;6088898;23;92457;-76
2022/12/01 00:06:08;;;;;;;92.93;33.75;;;7.30;99.90;;;;;;6066560;23;92339;-77
2022/12/01 00:08:35;;;;;;;88.18;33.05;;;7.30;99.90;;;;;;6064460;23;95660;-74
2022/12/01 00:11:13;;;;;;;85.72;33.25;;;7.30;99.90;;;;;;6064633;23;95331;-74
2022/12/01 00:13:40;;;;;;;84.75;32.47;;;7.40;99.90;;;;;;6066362;23;92930;-74
2022/12/01 00:16:16;;;;;;;88.63;35.00;;;7.30;99.90;;;;;;6066316;23;92433;-74
2022/12/01 00:18:43;;;;;;;88.32;34.08;;;7.30;99.90;;;;;;6064537;23;93164;-74
2022/12/01 00:21:15;;;;;;;83.28;34.30;;;7.30;99.90;;;;;;6088913;23;92963;-74
2022/12/01 00:23:46;;;;;;;98.22;35.63;;;7.30;99.90;;;;;;6066241;23;92544;-77
2022/12/01 00:26:15;;;;;;;91.15;33.72;;;7.30;99.90;;;;;;6066865;23;92175;-75
2022/12/01 00:28:42;;;;;;;94.35;33.55;;;7.30;99.90;;;;;;6064137;23;96650;-74
2022/12/01 00:31:10;;;;;;;87.18;33.58;;;7.20;99.90;;;;;;6063716;23;110519;-74
2022/12/01 00:33:38;;;;;;;88.03;34.13;;;7.20;99.90;;;;;;6064491;23;94795;-74
2022/12/01 00:36:05;;;;;;;87.03;34.30;;;7.30;99.90;;;;;;6088845;23;92518;-74
2022/12/01 00:38:33;;;;;;;98.30;39.03;;;7.30;99.90;;;;;;6088563;23;95414;-74
2022/12/01 00:41:00;;;;;;;82.18;33.67;;;7.20;99.90;;;;;;6064408;23;95453;-74
2022/12/01 00:43:27;;;;;;;87.13;36.60;;;7.20;99.90;;;;;;6064427;23;92461;-74
2022/12/01 00:45:55;;;;;;;91.72;35.85;;;7.20;99.90;;;;;;6064622;23;92419;-74
2022/12/01 00:48:22;;;;;;;83.32;34.00;;;7.30;99.90;;;;;;6088298;23;95652;-75
2022/12/01 00:50:51;;;;;;;98.60;36.08;;;7.30;99.90;;;;;;6066351;23;93151;-74
2022/12/01 00:53:18;;;;;;;82.68;34.78;;;7.30;99.90;;;;;;6064787;23;92391;-74
2022/12/01 00:55:46;;;;;;;80.75;33.20;;;7.30;99.90;;;;;;6088923;23;92348;-74
2022/12/01 00:58:12;;;;;;;78.47;33.75;;;7.30;99.90;;;;;;6062409;23;105562;-74
2022/12/01 01:00:41;;;;;;;88.75;35.85;;;7.30;99.90;;;;;;6088236;23;100562;-75
2022/12/01 01:03:09;;;;;;;80.40;33.15;;;7.30;99.90;;;;;;6066073;23;92393;-74
2022/12/01 01:05:38;;;;;;;86.90;33.38;;;7.30;99.90;;;;;;6065796;23;92413;-74
2022/12/01 01:08:10;;;;;;;81.47;34.45;;;7.30;99.90;;;;;;6088509;23;94379;-74
2022/12/01 01:10:38;;;;;;;74.28;31.08;;;7.30;99.90;;;;;;6088719;23;93084;-74
2022/12/01 01:13:05;;;;;;;76.63;33.63;;;7.20;99.90;;;;;;6066036;23;92360;-74
2022/12/01 01:15:33;;;;;;;77.03;32.50;;;7.20;99.90;;;;;;6064603;23;91675;-74
2022/12/01 01:18:00;;;;;;;74.80;32.55;;;7.20;99.90;;;;;;6066184;23;92723;-74
2022/12/01 01:20:27;;;;;;;75.50;31.33;;;7.20;99.90;;;;;;6064054;23;93062;-74
2022/12/01 01:22:54;;;;;;;77.85;31.73;;;7.20;99.90;;;;;;6038654;23;95145;-74
2022/12/01 01:25:21;;;;;;;77.95;33.55;;;7.20;99.90;;;;;;6088463;23;99285;-74
2022/12/01 01:27:49;;;;;;;81.10;33.35;;;7.20;99.90;;;;;;6065544;23;92999;-74
2022/12/01 01:30:16;;;;;;;77.45;31.83;;;7.20;99.90;;;;;;6064344;23;92939;-74
2022/12/01 01:32:43;;;;;;;81.43;34.58;;;7.20;99.90;;;;;;6065691;23;92303;-74
2022/12/01 01:35:10;;;;;;;73.63;32.13;;;7.20;99.90;;;;;;6040071;23;92403;-74
2022/12/01 01:37:37;;;;;;;76.97;34.92;;;7.20;99.90;;;;;;6063603;23;93131;-74
2022/12/01 01:40:05;;;;;;;73.28;32.05;;;7.20;99.90;;;;;;6066047;23;92971;-74
2022/12/01 01:42:32;;;;;;;70.45;33.22;;;7.30;99.90;;;;;;6064149;23;93039;-74
2022/12/01 01:44:59;;;;;;;76.80;32.30;;;7.30;99.90;;;;;;6065928;23;92401;-74
2022/12/01 01:47:33;;;;;;;72.63;31.10;;;7.30;99.90;;;;;;6062407;23;98257;-74
2022/12/01 01:50:04;;;;;;;70.15;30.13;;;7.30;99.90;;;;;;6065344;23;95362;-74
2022/12/01 01:52:39;;;;;;;71.95;33.03;;;7.40;99.90;;;;;;6064111;23;92385;-74
2022/12/01 01:55:07;;;;;;;69.60;32.25;;;7.40;99.90;;;;;;6065979;23;92293;-74
2022/12/01 01:57:35;;;;;;;73.40;33.28;;;7.30;99.90;;;;;;6063514;23;103043;-74
2022/12/01 02:00:09;;;;;;;74.03;33.70;;;7.30;99.90;;;;;;6064001;23;93105;-74
2022/12/01 02:02:43;;;;;;;69.10;33.85;;;7.30;99.90;;;;;;6065691;23;92508;-74
2022/12/01 02:05:19;;;;;;;72.57;33.72;;;7.30;99.90;;;;;;6066346;23;91722;-74
2022/12/01 02:07:47;;;;;;;71.18;32.70;;;7.30;99.90;;;;;;6088439;23;95649;-74
2022/12/01 02:10:21;;;;;;;74.05;31.55;;;7.30;99.90;;;;;;6065577;23;92343;-74
2022/12/01 02:13:06;;;;;;;72.80;33.47;;;7.30;99.90;;;;;;6038359;23;94949;-74
2022/12/01 02:15:59;;;;;;;77.35;33.65;;;7.30;99.90;;;;;;6064123;23;92400;-74
2022/12/01 02:18:54;;;;;;;73.65;33.05;;;7.20;99.90;;;;;;6063886;23;95898;-74
2022/12/01 02:21:41;;;;;;;73.85;34.63;;;7.30;99.90;;;;;;6064029;23;95628;-74
2022/12/01 02:24:08;;;;;;;70.97;31.70;;;7.20;99.90;;;;;;6065740;23;92439;-74
2022/12/01 02:27:10;;;;;;;74.50;33.70;;;7.20;99.90;;;;;;6088451;23;92380;-75
2022/12/01 02:29:55;;;;;;;72.45;34.00;;;7.20;99.90;;;;;;6039751;23;96047;-74
2022/12/01 02:32:43;;;;;;;73.60;35.05;;;7.20;99.90;;;;;;6064497;23;93312;-74
2022/12/01 02:35:34;;;;;;;72.43;32.90;;;7.20;99.90;;;;;;6065692;23;92362;-74
2022/12/01 02:38:45;;;;;;;57.13;26.50;;;7.20;99.90;;;;;;6063802;23;92447;-74
2022/12/01 02:41:29;;;;;;;80.75;33.70;;;7.20;99.90;;;;;;6040499;23;95647;-74
2022/12/01 02:44:15;;;;;;;77.57;35.55;;;7.10;99.90;;;;;;6063790;23;95456;-74
2022/12/01 02:46:59;;;;;;;72.18;33.38;;;7.10;99.90;;;;;;6039708;23;92982;-74
2022/12/01 02:49:31;;;;;;;73.57;32.20;;;7.20;99.90;;;;;;6064121;23;92364;-74
2022/12/01 02:51:58;;;;;;;69.93;33.47;;;7.10;99.90;;;;;;6063788;23;95761;-74
2022/12/01 02:54:29;;;;;;;72.57;33.75;;;7.10;99.90;;;;;;6064818;23;106654;-74
2022/12/01 02:56:56;;;;;;;73.82;35.13;;;7.10;99.90;;;;;;6088302;23;92426;-74
2022/12/01 02:59:23;;;;;;;73.55;36.47;;;7.10;99.90;;;;;;6065537;23;91635;-74
2022/12/01 03:01:56;;;;;;;77.97;33.17;;;7.20;99.90;;;;;;6087124;23;95825;-74
2022/12/01 03:04:29;;;;;;;74.00;32.17;;;7.20;99.90;;;;;;6088194;23;95747;-74
2022/12/01 03:07:05;;;;;;;75.40;33.95;;;7.20;99.90;;;;;;6062412;23;94857;-74
2022/12/01 03:09:59;;;;;;;77.75;35.08;;;7.20;99.90;;;;;;6065481;23;92464;-74
2022/12/01 03:12:47;;;;;;;74.32;34.75;;;7.20;99.90;;;;;;6063800;23;93361;-74
2022/12/01 03:15:29;;;;;;;80.95;36.67;;;7.10;99.90;;;;;;6065431;23;93108;-74
2022/12/01 03:18:03;;;;;;;76.93;34.85;;;7.10;99.90;;;;;;6088211;23;93048;-74
2022/12/01 03:20:36;;;;;;;70.95;33.08;;;7.10;99.90;;;;;;6063909;23;92846;-74
2022/12/01 03:23:16;;;;;;;79.47;34.85;;;7.10;99.90;;;;;;6065137;23;93159;-74
2022/12/01 03:25:47;;;;;;;77.43;35.67;;;7.10;99.90;;;;;;6088129;23;95679;-74
2022/12/01 03:28:17;;;;;;;74.78;34.47;;;7.10;99.90;;;;;;6065364;23;92358;-74
2022/12/01 03:30:51;;;;;;;79.37;36.63;;;7.10;99.90;;;;;;6065064;23;92324;-74
2022/12/01 03:33:27;;;;;;;82.07;36.08;;;7.10;99.90;;;;;;6063538;23;95672;-74
2022/12/01 03:36:00;;;;;;;80.95;35.20;;;7.20;99.90;;;;;;6064652;23;95319;-74
2022/12/01 03:38:29;;;;;;;86.33;37.13;;;7.20;99.90;;;;;;6064947;23;92778;-74
2022/12/01 03:41:00;;;;;;;75.78;36.00;;;7.20;99.90;;;;;;6063316;23;92406;-74
2022/12/01 03:43:32;;;;;;;80.03;34.83;;;7.20;99.90;;;;;;6087833;23;96025;-74
2022/12/01 03:46:05;;;;;;;83.78;36.83;;;7.20;99.90;;;;;;6064751;23;92931;-74
2022/12/01 03:48:32;;;;;;;86.22;36.97;;;7.20;99.90;;;;;;6065173;23;92313;-74
2022/12/01 03:51:12;;;;;;;81.60;37.15;;;7.20;99.90;;;;;;6088038;23;91690;-74
2022/12/01 03:54:04;;;;;;;80.55;36.40;;;7.30;99.90;;;;;;6064956;23;92384;-74
2022/12/01 03:56:37;;;;;;;79.50;36.70;;;7.30;99.90;;;;;;6087874;23;94080;-74
2022/12/01 03:59:07;;;;;;;84.73;37.00;;;7.20;99.90;;;;;;6061991;23;95254;-74
2022/12/01 04:01:33;;;;;;;80.80;36.72;;;7.20;99.90;;;;;;6065171;23;92407;-74
2022/12/01 04:04:06;;;;;;;82.50;35.85;;;7.20;99.90;;;;;;6064576;23;96294;-74
2022/12/01 04:06:33;;;;;;;78.63;34.75;;;7.30;99.90;;;;;;6087757;23;92873;-74
2022/12/01 04:09:00;;;;;;;79.47;33.85;;;7.30;99.90;;;;;;6064558;23;92309;-74
2022/12/01 04:14:13;;;;;;;78.55;35.70;;;7.30;99.90;;;;;;6066086;23;93238;-74
2022/12/01 04:16:40;;;;;;;78.45;36.22;;;7.20;99.90;;;;;;6066527;23;92814;-74
2022/12/01 04:19:07;;;;;;;79.00;35.00;;;7.20;99.90;;;;;;6064189;23;92516;-74
2022/12/01 04:21:34;;;;;;;87.15;37.15;;;7.20;99.90;;;;;;6066267;23;92411;-74
2022/12/01 04:24:01;;;;;;;89.78;38.63;;;7.20;99.90;;;;;;6064276;23;95680;-74
2022/12/01 04:26:33;;;;;;;80.88;35.85;;;7.30;99.90;;;;;;6040258;23;97914;-74
2022/12/01 04:29:02;;;;;;;80.55;37.00;;;7.30;99.90;;;;;;6064428;23;92521;-74
2022/12/01 04:31:29;;;;;;;83.38;36.22;;;7.30;99.90;;;;;;6089137;23;92880;-74
2022/12/01 04:33:57;;;;;;;82.28;34.95;;;7.30;99.90;;;;;;6065755;23;92397;-74
2022/12/01 04:36:25;;;;;;;85.28;38.00;;;7.20;99.90;;;;;;6066205;23;92402;-74
2022/12/01 04:38:52;;;;;;;78.95;35.42;;;7.20;99.90;;;;;;6039705;23;92425;-74
2022/12/01 04:41:19;;;;;;;82.82;37.00;;;7.20;99.90;;;;;;6066642;23;91597;-74
2022/12/01 04:43:46;;;;;;;85.43;37.28;;;7.20;99.90;;;;;;6065509;23;103688;-74
2022/12/01 04:46:14;;;;;;;80.68;35.67;;;7.10;99.90;;;;;;6064162;23;95584;-74
2022/12/01 04:48:42;;;;;;;91.25;37.10;;;7.20;99.90;;;;;;6064655;23;94805;-74
2022/12/01 04:51:09;;;;;;;81.75;37.15;;;7.20;99.90;;;;;;6065865;23;92359;-74
2022/12/01 04:53:36;;;;;;;84.43;36.45;;;7.20;99.90;;;;;;6088955;23;95593;-74
2022/12/01 04:56:03;;;;;;;84.22;36.28;;;7.20;99.90;;;;;;6065660;23;93082;-74
2022/12/01 04:58:32;;;;;;;92.60;38.25;;;7.20;99.90;;;;;;6064555;23;92399;-74
2022/12/01 05:01:06;;;;;;;82.53;36.13;;;7.20;99.90;;;;;;6065765;23;92430;-74
2022/12/01 05:03:38;;;;;;;91.93;38.20;;;7.30;99.90;;;;;;6088905;23;94809;-74
2022/12/01 05:06:09;;;;;;;83.55;36.17;;;7.20;99.90;;;;;;6064720;23;92892;-74
2022/12/01 05:08:36;;;;;;;85.43;37.33;;;7.20;99.90;;;;;;6089112;23;92509;-74
2022/12/01 05:11:06;;;;;;;83.57;39.05;;;7.20;99.90;;;;;;6088683;23;92429;-74
2022/12/01 05:13:38;;;;;;;84.82;36.67;;;7.20;99.90;;;;;;6062917;23;98212;-74
2022/12/01 05:16:07;;;;;;;93.95;39.22;;;7.20;99.90;;;;;;6065683;23;95448;-74
2022/12/01 05:18:35;;;;;;;85.13;36.17;;;7.20;99.90;;;;;;6066314;23;92338;-74
2022/12/01 05:21:04;;;;;;;89.00;37.58;;;7.20;99.90;;;;;;6065655;23;92429;-74
2022/12/01 05:23:34;;;;;;;82.03;36.33;;;7.20;99.90;;;;;;6087595;23;99266;-74
2022/12/01 05:26:02;;;;;;;83.72;38.15;;;7.30;99.90;;;;;;6088322;23;95637;-74
2022/12/01 05:28:29;;;;;;;87.93;38.10;;;7.20;99.90;;;;;;6088937;23;92390;-74
2022/12/01 05:30:57;;;;;;;83.72;36.30;;;7.30;99.90;;;;;;6066403;23;91654;-74
2022/12/01 05:33:25;;;;;;;89.03;37.67;;;7.30;99.90;;;;;;6064122;23;94368;-74
2022/12/01 05:35:53;;;;;;;88.38;37.72;;;7.30;99.90;;;;;;6065729;23;92592;-74
2022/12/01 05:38:20;;;;;;;91.72;37.08;;;7.30;99.90;;;;;;6086865;23;94984;-74
2022/12/01 05:40:52;;;;;;;83.10;37.33;;;7.30;99.90;;;;;;6064404;23;92432;-74
2022/12/01 05:43:20;;;;;;;87.85;35.72;;;7.30;99.90;;;;;;6064299;23;92370;-75
2022/12/01 05:45:54;;;;;;;;;;;7.30;99.90;;;;;;6066311;23;92955;-74
2022/12/01 05:48:21;;;;;;;80.30;34.42;;;7.20;99.90;;;;;;6067155;23;102384;-74
2022/12/01 05:50:47;;;;;;;86.65;35.67;;;7.20;99.90;;;;;;6065858;23;92461;-74
2022/12/01 05:53:15;;;;;;;92.07;38.00;;;7.20;99.90;;;;;;6063899;23;93093;-74
2022/12/01 05:55:42;;;;;;;94.93;38.20;;;7.20;99.90;;;;;;6066047;23;92935;-74
2022/12/01 05:58:10;;;;;;;96.13;40.22;;;7.20;99.90;;;;;;6088420;23;92482;-74
2022/12/01 06:00:38;;;;;;;88.25;36.03;;;7.30;99.90;;;;;;6065746;23;92408;-74
2022/12/01 06:03:11;;;;;;;;;;;7.30;99.90;;;;;;6064451;23;95276;-74
2022/12/01 06:05:38;;;;;;;80.97;35.80;;;7.20;99.90;;;;;;6066217;23;95095;-74
2022/12/01 06:08:05;;;;;;;97.18;38.05;;;7.20;99.90;;;;;;6064284;23;92356;-74
2022/12/01 06:10:32;;;;;;;91.50;36.47;;;7.30;99.90;;;;;;6040274;23;92467;-74
2022/12/01 06:12:59;;;;;;;89.13;39.33;;;7.30;99.90;;;;;;6065557;23;92970;-74
2022/12/01 06:15:26;;;;;;;93.03;37.53;;;7.30;99.90;;;;;;6065371;23;93099;-74
2022/12/01 06:17:53;;;;;;;86.57;36.53;;;7.30;99.90;;;;;;6063893;23;99988;-74
2022/12/01 06:20:20;;;;;;;95.50;38.13;;;7.30;99.90;;;;;;6065728;23;91675;-74
2022/12/01 06:22:47;;;;;;;86.50;34.60;;;7.40;99.90;;;;;;6064049;23;93210;-74
2022/12/01 06:25:14;;;;;;;86.78;36.25;;;7.40;99.90;;;;;;6065261;23;93087;-74
2022/12/01 06:27:41;;;;;;;83.03;35.80;;;7.30;99.90;;;;;;6064274;23;94779;-74
2022/12/01 06:30:08;;;;;;;85.68;36.65;;;7.30;99.90;;;;;;6065471;23;92419;-74
2022/12/01 06:32:35;;;;;;;90.80;35.80;;;7.30;99.90;;;;;;6065598;23;93310;-74
2022/12/01 06:35:02;;;;;;;86.60;37.05;;;7.30;99.90;;;;;;6063869;23;92629;-74
2022/12/01 06:37:29;;;;;;;82.13;36.45;;;7.40;99.90;;;;;;6039456;23;92418;-74
2022/12/01 06:39:56;;;;;;;90.03;36.40;;;7.40;99.90;;;;;;6063989;23;92415;-74
2022/12/01 06:42:23;;;;;;;82.38;34.88;;;7.40;99.90;;;;;;6063679;23;93214;-74
2022/12/01 06:44:50;;;;;;;87.88;36.05;;;7.40;99.90;;;;;;6088840;23;95587;-74
2022/12/01 06:47:17;;;;;;;83.07;36.03;;;7.40;99.90;;;;;;6063650;23;93164;-74
2022/12/01 06:49:44;;;;;;;82.70;33.97;;;7.40;99.90;;;;;;6065555;23;92426;-75
2022/12/01 06:52:11;;;;;;;87.47;36.75;;;7.40;99.90;;;;;;6061863;23;97965;-74
2022/12/01 06:54:38;;;;;;;84.28;36.58;;;7.40;99.90;;;;;;6039551;23;98147;-74
2022/12/01 06:57:05;;;;;;;92.95;35.92;;;7.40;99.90;;;;;;6088417;23;92383;-74
2022/12/01 06:59:32;;;;;;;88.85;35.60;;;7.40;99.90;;;;;;6065130;23;92405;-74
2022/12/01 07:01:59;;;;;;;88.25;36.45;;;7.50;99.90;;;;;;6065079;23;99228;-74
2022/12/01 07:04:26;;;;;;;96.15;39.72;;;7.50;99.90;;;;;;6065166;23;92811;-74
2022/12/01 07:06:53;;;;;;;86.57;35.60;;;7.50;99.90;;;;;;6063922;23;92398;-74
2022/12/01 07:09:20;;;;;;;85.75;35.88;;;7.40;99.90;;;;;;6064187;23;91720;-74
2022/12/01 07:11:47;;;;;;;91.80;36.28;;;7.40;99.90;;;;;;6065405;23;93299;-74
2022/12/01 07:14:24;;;;;;;82.78;35.30;;;7.40;99.90;;;;;;6064953;23;92955;-74
2022/12/01 07:16:51;;;;;;;85.00;34.08;;;7.50;99.90;;;;;;6086915;23;95006;-74
2022/12/01 07:19:18;;;;;;;86.95;36.70;;;7.50;99.90;;;;;;6087814;23;92418;-74
2022/12/01 07:21:45;;;;;;;86.22;36.65;;;7.40;99.90;;;;;;6087919;23;95697;-74
2022/12/01 07:24:12;;;;;;;96.18;38.50;;;7.40;99.90;;;;;;6065212;23;93042;-74
2022/12/01 07:26:40;;;;;;;92.60;37.35;;;7.40;99.90;;;;;;6065099;23;94089;-74
2022/12/01 07:29:10;;;;;;;94.40;37.35;;;7.50;99.90;;;;;;6065206;23;92390;-74
2022/12/01 07:31:38;;;;;;;93.28;39.08;;;7.50;99.90;;;;;;6063450;23;93204;-74
2022/12/01 07:34:05;;;;;;;91.35;38.55;;;7.50;99.90;;;;;;6088436;23;95501;-74
2022/12/01 07:36:32;;;;;;;98.22;37.03;;;7.50;99.90;;;;;;6064951;23;92430;-74
2022/12/01 07:39:03;;;;;;;86.03;37.92;;;7.60;99.90;;;;;;6063318;23;92523;-74
2022/12/01 07:41:30;;;;;;;83.00;35.70;;;7.60;99.90;;;;;;6061695;23;95394;-74
2022/12/01 07:43:57;;;;;;;93.35;38.15;;;7.60;99.90;;;;;;6063149;23;96462;-74
2022/12/01 07:46:25;;;;;;;84.57;36.13;;;7.60;99.90;;;;;;6087942;23;92847;-74
2022/12/01 07:48:54;;;;;;;83.85;34.83;;;7.60;99.90;;;;;;6066431;23;92527;-74
2022/12/01 07:51:22;;;;;;;86.57;34.97;;;7.60;99.90;;;;;;6066048;23;93387;-74
2022/12/01 07:53:51;;;;;;;87.53;37.53;;;7.70;99.90;;;;;;6064318;23;95555;-74
2022/12/01 07:56:20;;;;;;;83.03;34.97;;;7.60;99.90;;;;;;6064139;23;93028;-74
2022/12/01 07:58:47;;;;;;;87.18;36.50;;;7.60;99.90;;;;;;6065469;23;91732;-74
2022/12/01 08:01:19;;;;;;;80.82;35.47;;;7.60;99.90;;;;;;6066011;23;93218;-74
2022/12/01 08:03:48;;;;;;;86.60;35.28;;;7.70;99.90;;;;;;6064594;23;92508;-74
2022/12/01 08:06:16;;;;;;;87.57;36.50;;;7.70;99.90;;;;;;6065063;23;95123;-74
2022/12/01 08:08:43;;;;;;;84.82;34.35;;;7.70;99.90;;;;;;6089153;23;92461;-74
2022/12/01 08:11:16;;;;;;;78.05;34.83;;;7.70;99.90;;;;;;6066185;23;93413;-74
2022/12/01 08:13:44;;;;;;;80.63;34.97;;;7.70;99.90;;;;;;6066180;23;93060;-74
2022/12/01 08:16:16;;;;;;;80.60;34.97;;;7.70;99.90;;;;;;6066230;23;92428;-74
2022/12/01 08:18:43;;;;;;;85.47;34.03;;;7.80;99.90;;;;;;6066010;23;92373;-74
2022/12/01 08:21:12;;;;;;;73.30;33.15;;;7.80;99.90;;;;;;6064558;23;93232;-74
2022/12/01 08:23:41;;;;;;;79.68;32.72;;;7.80;99.90;;;;;;6064657;23;93123;-74
2022/12/01 08:26:11;;;;;;;83.55;33.95;;;7.80;99.90;;;;;;6064029;23;99559;-74
2022/12/01 08:28:39;;;;;;;84.40;35.33;;;7.80;99.90;;;;;;6066037;23;92899;-74
2022/12/01 08:31:11;;;;;;;77.40;33.47;;;7.80;99.90;;;;;;6064252;23;99006;-74
2022/12/01 08:33:38;;;;;;;79.82;33.17;;;7.80;99.90;;;;;;6064149;23;95286;-74
2022/12/01 08:36:06;;;;;;;77.85;32.85;;;7.80;99.90;;;;;;6089037;23;92378;-74
2022/12/01 08:38:33;;;;;;;78.53;32.47;;;7.80;99.90;;;;;;6064255;23;92456;-74
2022/12/01 08:41:03;;;;;;;72.55;32.95;;;7.80;99.90;;;;;;6066085;23;93374;-74
2022/12/01 08:43:29;;;;;;;76.38;34.38;;;7.80;99.90;;;;;;6064290;23;92481;-74
2022/12/01 08:46:16;;;;;;;70.88;31.35;;;7.90;99.90;;;;;;6065190;23;92405;-74
2022/12/01 08:48:43;;;;;;;68.30;32.63;;;7.80;99.90;;;;;;6066457;23;92526;-74
2022/12/01 08:51:13;;;;;;;75.05;31.35;;;7.80;99.90;;;;;;6065904;23;93197;-74
2022/12/01 08:53:42;;;;;;;76.18;33.33;;;7.90;99.90;;;;;;6065776;23;92840;-74
2022/12/01 08:56:19;;;;;;;73.18;31.23;;;7.90;99.90;;;;;;6064716;23;94795;-74
2022/12/01 08:58:46;;;;;;;65.82;32.47;;;8.00;99.90;;;;;;6065885;23;92914;-74
2022/12/01 09:01:15;;;;;;;65.20;30.85;;;8.00;99.90;;;;;;6064892;23;111433;-75
2022/12/01 09:03:42;;;;;;;73.90;32.35;;;8.00;99.90;;;;;;6088351;23;95645;-74
2022/12/01 09:06:11;;;;;;;69.45;30.17;;;8.00;99.90;;;;;;6066063;23;92413;-74
2022/12/01 09:08:38;;;;;;;61.45;31.20;;;8.10;99.90;;;;;;6063869;23;92486;-75
2022/12/01 09:11:10;;;;;;;69.10;31.77;;;8.10;99.90;;;;;;6064320;23;93170;-74
2022/12/01 09:13:38;;;;;;;64.13;28.70;;;8.20;99.90;;;;;;6040355;23;94757;-74
2022/12/01 09:16:16;;;;;;;69.63;30.10;;;8.20;99.90;;;;;;6064384;23;92386;-74
2022/12/01 09:18:44;;;;;;;63.13;29.60;;;8.20;99.90;;;;;;6065959;23;92472;-74
2022/12/01 09:21:13;;;;;;;66.55;30.88;;;8.10;99.90;;;;;;6064211;23;95556;-74
2022/12/01 09:23:41;;;;;;;71.10;31.33;;;8.10;99.90;;;;;;6087914;23;97861;-74
2022/12/01 09:26:08;;;;;;;66.07;30.58;;;8.10;99.90;;;;;;6066026;23;92645;-74
2022/12/01 09:28:39;;;;;;;73.35;30.55;;;8.10;99.90;;;;;;6065873;23;92303;-74
2022/12/01 09:31:08;;;;;;;69.43;30.23;;;8.00;99.90;;;;;;6064427;23;92817;-74
2022/12/01 09:33:36;;;;;;;67.15;30.52;;;8.10;99.90;;;;;;6063693;23;93975;-74
2022/12/01 09:36:04;;;;;;;68.45;30.83;;;8.10;99.90;;;;;;6088608;23;94168;-75
2022/12/01 09:38:33;;;;;;;63.10;30.65;;;8.10;99.90;;;;;;6064211;23;91800;-74
2022/12/01 09:41:04;;;;;;;65.20;29.25;;;8.10;99.90;;;;;;6065623;23;93263;-74
2022/12/01 09:43:40;;;;;;;63.83;28.70;;;8.10;99.90;;;;;;6065790;23;92865;-74
2022/12/01 09:46:12;;;;;;;68.47;30.27;;;8.00;99.90;;;;;;6064706;23;94666;-74
2022/12/01 09:48:44;;;;;;;61.08;29.23;;;8.00;99.90;;;;;;6065663;23;92275;-74
2022/12/01 09:51:17;;;;;;;65.63;29.40;;;8.00;99.90;;;;;;6064190;23;95720;-74
2022/12/01 09:53:46;;;;;;;69.53;30.23;;;8.10;99.90;;;;;;6065492;23;93046;-74
2022/12/01 09:56:21;;;;;;;68.07;30.67;;;8.10;99.90;;;;;;6088548;23;92378;-74
2022/12/01 09:59:07;;;;;;;61.72;29.10;;;8.20;99.90;;;;;;6065751;23;93040;-74
2022/12/01 10:01:37;;;;;;;65.85;31.02;;;8.20;99.90;;;;;;6064129;23;95845;-74
2022/12/01 10:04:10;;;;;;;63.90;30.38;;;8.20;99.90;;;;;;6066090;23;93062;-74
2022/12/01 10:06:59;;;;;;;66.72;31.08;;;8.30;99.90;;;;;;6088594;23;92928;-74
2022/12/01 10:09:26;;;;;;;54.80;26.60;;;8.30;99.90;;;;;;6054107;23;92556;-74
2022/12/01 10:12:00;;;;;;;67.00;31.38;;;8.30;99.90;;;;;;6062271;23;96161;-74
2022/12/01 10:14:31;;;;;;;57.67;27.75;;;8.30;99.90;;;;;;6063900;23;95240;-74
2022/12/01 10:17:06;;;;;;;66.72;30.63;;;8.20;99.90;;;;;;6088505;23;92382;-75
2022/12/01 10:20:01;;;;;;;64.60;30.48;;;8.20;99.90;;;;;;6063909;23;92469;-74
2022/12/01 10:22:46;;;;;;;63.67;29.73;;;8.30;99.90;;;;;;6063955;23;92350;-74
2022/12/01 10:25:25;;;;;;;60.15;30.08;;;8.40;99.90;;;;;;6065583;23;92985;-74
2022/12/01 10:27:52;;;;;;;62.45;28.88;;;8.40;99.90;;;;;;6088583;23;93062;-74
2022/12/01 10:30:22;;;;;;;63.10;29.27;;;8.40;99.90;;;;;;6066102;23;91772;-74
2022/12/01 10:32:56;;;;;;;59.45;29.27;;;8.50;99.90;;;;;;6062885;23;93135;-74
2022/12/01 10:35:25;;;;;;;;;;;8.50;99.90;;;;;;6064593;23;93147;-74
2022/12/01 10:37:59;;;;;;;57.78;27.58;;;8.50;99.90;;;;;;6087604;23;94874;-74
2022/12/01 10:40:26;;;;;;;;;;;8.50;99.90;;;;;;6064690;23;92450;-74
2022/12/01 10:42:54;;;;;;;58.72;27.85;;;8.40;99.90;;;;;;6065414;23;95667;-74
2022/12/01 10:45:27;;;;;;;53.50;27.27;;;8.40;99.90;;;;;;6063557;23;95970;-74
2022/12/01 10:48:23;;;;;;;54.37;28.13;;;8.60;99.90;;;;;;6088041;23;92476;-74
2022/12/01 10:50:52;;;;;;;49.92;25.52;;;8.60;99.90;;;;;;6052778;23;92416;-74
2022/12/01 10:53:22;;;;;;;50.55;26.00;;;8.60;99.90;;;;;;6065260;23;92401;-74
2022/12/01 10:56:17;;;;;;;51.03;26.05;;;8.60;99.90;;;;;;6065568;23;93001;-74
2022/12/01 10:58:56;;;;;;;54.97;26.90;;;8.70;99.90;;;;;;6056031;23;92489;-74
2022/12/01 11:01:30;;;;;;;55.75;27.52;;;8.80;99.90;;;;;;6065448;23;92295;-74
2022/12/01 11:04:20;;;;;;;53.03;26.58;;;8.80;99.90;;;;;;6063508;23;95790;-74
2022/12/01 11:06:50;;;;;;;47.80;24.38;;;8.90;99.90;;;;;;6064948;23;95387;-74
2022/12/01 11:09:20;;;;;;;49.20;25.35;;;8.90;99.90;;;;;;6065467;23;92325;-74
2022/12/01 11:12:03;;;;;;;46.08;25.08;;;8.90;99.90;;;;;;6088014;23;92899;-74
2022/12/01 11:14:45;;;;;;;47.83;25.75;;;9.00;99.90;;;;;;6065295;23;92393;-74
2022/12/01 11:17:23;;;;;;;43.60;23.23;;;9.00;99.90;;;;;;6065253;23;93055;-74
2022/12/01 11:19:51;;;;;;;48.88;25.52;;;9.00;99.90;;;;;;6065213;23;92369;-76
2022/12/01 11:22:28;;;;;;;42.75;24.73;;;9.00;99.90;;;;;;6066324;23;91646;-77
2022/12/01 11:24:59;;;;;;;49.10;25.80;;;9.10;99.90;;;;;;6066098;23;93171;-75
2022/12/01 11:27:48;;;;;;;45.10;24.52;;;9.10;99.90;;;;;;6089149;23;92482;-74
2022/12/01 11:30:25;;;;;;;44.00;22.90;;;9.10;99.90;;;;;;6087871;23;95653;-74
2022/12/01 11:33:03;;;;;;;48.70;25.73;;;9.10;99.90;;;;;;6040120;23;92575;-74
2022/12/01 11:35:36;;;;;;;42.00;22.85;;;9.10;99.90;;;;;;6089225;23;100191;-74
2022/12/01 11:38:05;;;;;;;39.05;22.75;;;9.10;99.90;;;;;;6063983;23;95764;-74
2022/12/01 11:40:54;;;;;;;42.80;21.52;;;9.20;99.90;;;;;;6085052;23;92504;-74
2022/12/01 11:43:31;;;;;;;46.67;23.58;;;9.20;99.90;;;;;;6066453;23;92977;-74
2022/12/01 11:46:02;;;;;;;41.47;24.75;;;9.20;99.90;;;;;;6088920;23;93272;-74
2022/12/01 11:48:33;;;;;;;43.05;23.17;;;9.10;99.90;;;;;;6066636;23;91935;-75
2022/12/01 11:51:25;;;;;;;42.13;22.98;;;9.20;99.90;;;;;;6089115;23;92473;-74
2022/12/01 11:54:06;;;;;;;43.42;24.23;;;9.20;99.90;;;;;;6066136;23;92329;-74
2022/12/01 11:56:33;;;;;;;47.42;23.85;;;9.20;99.90;;;;;;6087589;23;95605;-74
2022/12/01 11:59:05;;;;;;;46.63;24.23;;;9.10;99.90;;;;;;6065598;23;99460;-75
2022/12/01 12:01:47;;;;;;;41.67;23.92;;;9.20;99.90;;;;;;6066491;23;93866;-74
2022/12/01 12:04:35;;;;;;;44.38;23.65;;;9.20;99.90;;;;;;6066115;23;92300;-74
2022/12/01 12:07:29;;;;;;;43.05;23.75;;;9.30;99.90;;;;;;6065855;23;93275;-74
2022/12/01 12:10:19;;;;;;;41.33;24.33;;;9.30;99.90;;;;;;6088820;23;92992;-74
2022/12/01 12:12:52;;;;;;;42.72;23.52;;;9.30;99.90;;;;;;6066615;23;93291;-74
2022/12/01 12:15:43;;;;;;;43.53;24.25;;;9.30;99.90;;;;;;6066782;23;91731;-75
2022/12/01 12:18:33;;;;;;;40.03;24.70;;;9.30;99.90;;;;;;6065859;23;93151;-75
2022/12/01 12:21:14;;;;;;;44.00;26.73;;;9.30;99.90;;;;;;6064385;23;93181;-74
2022/12/01 12:24:05;;;;;;;41.15;24.10;;;9.30;99.90;;;;;;6063339;23;94882;-74
2022/12/01 12:26:57;;;;;;;44.10;23.83;;;9.30;99.90;;;;;;6064816;23;92390;-75
2022/12/01 12:30:08;;;;;;;37.88;22.60;;;9.10;99.90;;;;;;6065905;23;93297;-74
2022/12/01 12:33:12;;;;;;;40.65;23.67;;;9.00;99.90;;;;;;6079123;23;94668;-74
2022/12/01 12:35:59;;;;;;;37.10;22.35;;;9.00;99.90;;;;;;6064566;23;92425;-74
2022/12/01 12:38:58;;;;;;;41.63;23.50;;;8.90;99.90;;;;;;6039033;23;92537;-74
2022/12/01 12:41:28;;;;;;;38.03;23.10;;;8.90;99.90;;;;;;6066072;23;93194;-74
2022/12/01 12:43:58;;;;;;;41.45;24.38;;;8.80;99.90;;;;;;6089180;23;95549;-77
2022/12/01 12:46:54;;;;;;;42.95;24.25;;;8.80;99.90;;;;;;6064177;23;92532;-75
2022/12/01 12:49:39;;;;;;;42.85;24.73;;;8.80;99.90;;;;;;6066160;23;92334;-74
2022/12/01 12:52:12;;;;;;;39.65;23.08;;;8.80;99.90;;;;;;6064030;23;95486;-74
2022/12/01 12:54:58;;;;;;;42.35;23.67;;;8.80;99.90;;;;;;6088795;23;97989;-74
2022/12/01 12:57:36;;;;;;;41.67;24.75;;;8.80;99.90;;;;;;6066099;23;92397;-74
2022/12/01 13:00:06;;;;;;;37.15;21.15;;;8.60;99.90;;;;;;6065838;23;92324;-74
2022/12/01 13:02:41;;;;;;;42.85;23.95;;;8.60;99.90;;;;;;6065186;23;107522;-74
2022/12/01 13:05:11;;;;;;;40.50;24.35;;;8.60;99.90;;;;;;6065712;23;92937;-74
2022/12/01 13:07:57;;;;;;;44.03;25.30;;;8.60;99.90;;;;;;6064623;23;92402;-74